Time;durP1;ratioP1;P1;durP2;ratioP2;P2;SDS_P1;SDS_P2;PMS_P1;PMS_P2;Temp;Humidity;BMP_temperature;BMP_pressure;BME280_temperature;BME280_humidity;BME280_pressure;Samples;Min_cycle;Max_cycle;Signal;HPM_P1;HPM_P2
2022/03/04 00:00:27;;;;;;;19.40;13.18;;;;;;;0.99;84.19;98957.09;1687542;84;21010;-81
2022/03/04 00:02:55;;;;;;;17.82;12.37;;;;;;;0.98;84.22;98955.39;1692959;84;21154;-81
2022/03/04 00:05:21;;;;;;;15.18;11.95;;;;;;;1.00;84.18;98952.34;1666802;85;21102;-81
2022/03/04 00:07:48;;;;;;;16.52;12.15;;;;;;;0.99;84.21;98950.61;1687612;82;21133;-81
2022/03/04 00:10:15;;;;;;;17.45;12.03;;;;;;;0.99;84.23;98954.50;1685961;84;21094;-81
2022/03/04 00:12:41;;;;;;;18.15;12.50;;;;;;;0.98;84.27;98950.20;1692037;84;21084;-82
2022/03/04 00:15:09;;;;;;;16.23;11.45;;;;;;;1.00;84.28;98948.91;1683128;85;21154;-83
2022/03/04 00:17:35;;;;;;;13.30;11.10;;;;;;;1.00;84.26;98952.34;1685152;85;21075;-81
2022/03/04 00:20:03;;;;;;;15.05;11.28;;;;;;;0.98;84.29;98947.61;1684825;85;21694;-81
2022/03/04 00:22:30;;;;;;;14.18;11.30;;;;;;;0.98;84.33;98946.77;1685318;85;21726;-80
2022/03/04 00:24:56;;;;;;;12.58;10.65;;;;;;;0.99;84.30;98945.44;1685439;84;21073;-83
2022/03/04 00:27:23;;;;;;;13.03;10.23;;;;;;;0.99;84.21;98942.84;1685339;85;21086;-82
2022/03/04 00:29:49;;;;;;;14.33;10.58;;;;;;;0.98;84.20;98939.84;1685059;84;21109;-82
2022/03/04 00:32:16;;;;;;;12.78;9.33;;;;;;;0.97;84.22;98947.17;1664507;84;21467;-84
2022/03/04 00:34:43;;;;;;;12.63;9.23;;;;;;;0.99;84.15;98942.84;1668763;85;21171;-84
2022/03/04 00:37:09;;;;;;;11.43;8.50;;;;;;;0.99;84.07;98940.25;1726898;82;21142;-83
2022/03/04 00:39:36;;;;;;;9.23;8.10;;;;;;;0.96;83.98;98933.81;1731667;81;21015;-82
2022/03/04 00:42:03;;;;;;;10.20;8.18;;;;;;;0.95;83.90;98936.41;1734817;82;21075;-82
2022/03/04 00:44:31;;;;;;;10.95;8.30;;;;;;;0.91;83.81;98935.13;1736397;82;21004;-80
2022/03/04 00:46:57;;;;;;;8.73;7.15;;;;;;;0.88;83.69;98929.95;1737957;82;21298;-82
2022/03/04 00:49:24;;;;;;;8.58;7.70;;;;;;;0.86;83.67;98934.73;1738721;81;21153;-82
2022/03/04 00:51:51;;;;;;;9.30;7.37;;;;;;;0.80;83.69;98934.31;1699338;83;21086;-82
2022/03/04 00:54:17;;;;;;;10.15;8.55;;;;;;;0.78;83.75;98937.79;1718070;83;21102;-83
2022/03/04 00:56:44;;;;;;;11.85;8.80;;;;;;;0.79;83.74;98934.31;1718194;82;20972;-83
2022/03/04 00:59:10;;;;;;;10.48;8.53;;;;;;;0.77;83.73;98939.94;1719652;83;21409;-83
2022/03/04 01:01:37;;;;;;;12.00;8.83;;;;;;;0.77;83.78;98933.47;1719406;83;21697;-82
2022/03/04 01:04:04;;;;;;;11.88;9.55;;;;;;;0.75;83.81;98936.06;1721057;83;21117;-83
2022/03/04 01:06:31;;;;;;;12.35;9.35;;;;;;;0.76;83.81;98941.68;1720733;83;21078;-81
2022/03/04 01:08:57;;;;;;;15.60;10.48;;;;;;;0.78;83.77;98939.94;1728238;81;21023;-81
2022/03/04 01:11:24;;;;;;;13.95;10.75;;;;;;;0.77;83.78;98933.47;1721063;81;21156;-84
2022/03/04 01:13:50;;;;;;;13.95;10.38;;;;;;;0.77;83.76;98937.35;1719414;83;21082;-81
2022/03/04 01:16:17;;;;;;;14.40;10.32;;;;;;;0.77;83.73;98934.77;1721425;83;21007;-83
2022/03/04 01:18:43;;;;;;;10.82;9.43;;;;;;;0.79;83.70;98933.91;1721521;83;21007;-81
2022/03/04 01:21:10;;;;;;;14.25;10.43;;;;;;;0.80;83.64;98936.05;1720875;83;21117;-82
2022/03/04 01:23:36;;;;;;;13.70;10.32;;;;;;;0.79;83.59;98934.31;1721470;83;21261;-83
2022/03/04 01:26:02;;;;;;;11.00;9.20;;;;;;;0.79;83.60;98927.84;1721046;81;21080;-82
2022/03/04 01:28:29;;;;;;;10.38;8.85;;;;;;;0.78;83.54;98930.88;1721555;83;21035;-84
2022/03/04 01:30:56;;;;;;;10.70;8.80;;;;;;;0.80;83.48;98928.28;1718932;83;21082;-83
2022/03/04 01:33:22;;;;;;;10.82;8.60;;;;;;;0.78;83.40;98932.61;1721655;82;21092;-83
2022/03/04 01:35:49;;;;;;;9.15;8.18;;;;;;;0.73;83.38;98932.18;1721212;82;22003;-82
2022/03/04 01:38:15;;;;;;;12.53;7.85;;;;;;;0.71;83.37;98937.80;1720930;83;21671;-79
2022/03/04 01:40:42;;;;;;;10.23;8.13;;;;;;;0.69;83.30;98934.37;1721043;83;21133;-82
2022/03/04 01:43:09;;;;;;;11.73;8.80;;;;;;;0.67;83.27;98932.64;1745643;79;21396;-78
2022/03/04 01:45:35;;;;;;;10.63;9.13;;;;;;;0.63;83.29;98939.56;1720376;83;21636;-82
2022/03/04 01:48:02;;;;;;;9.75;8.38;;;;;;;0.61;83.33;98937.86;1700238;83;21080;-83
2022/03/04 01:50:29;;;;;;;11.45;9.13;;;;;;;0.61;83.35;98939.16;1723777;81;21645;-83
2022/03/04 01:52:55;;;;;;;10.50;8.70;;;;;;;0.58;83.28;98936.13;1691352;83;21082;-82
2022/03/04 01:55:22;;;;;;;14.13;9.83;;;;;;;0.58;83.28;98943.05;1716998;81;21594;-82
2022/03/04 01:57:49;;;;;;;11.90;9.50;;;;;;;0.55;83.30;98937.43;1716412;83;20982;-82
2022/03/04 02:00:16;;;;;;;14.25;10.18;;;;;;;0.53;83.34;98936.58;1697567;83;21103;-81
2022/03/04 02:02:44;;;;;;;14.70;9.78;;;;;;;0.56;83.32;98941.75;1678526;83;21042;-82
2022/03/04 02:05:15;;;;;;;13.62;10.03;;;;;;;0.54;83.26;98943.05;1720632;83;21035;-82
2022/03/04 02:07:41;;;;;;;19.15;9.93;;;;;;;0.51;83.26;98942.20;1719763;83;21073;-82
2022/03/04 02:10:09;;;;;;;14.45;10.60;;;;;;;0.46;83.29;98943.51;1719716;83;21482;-84
2022/03/04 02:12:36;;;;;;;16.32;10.23;;;;;;;0.46;83.33;98943.51;1719471;81;21190;-79
2022/03/04 02:15:04;;;;;;;13.38;10.53;;;;;;;0.46;83.38;98941.36;1718528;83;21108;-83
2022/03/04 02:17:31;;;;;;;13.58;9.68;;;;;;;0.45;83.40;98943.51;1719449;83;21110;-83
2022/03/04 02:19:59;;;;;;;13.28;10.20;;;;;;;0.45;83.40;98942.21;1719869;81;21058;-83
2022/03/04 02:22:25;;;;;;;14.45;10.70;;;;;;;0.42;83.40;98942.22;1719905;83;22343;-85
2022/03/04 02:24:52;;;;;;;16.70;10.35;;;;;;;0.44;83.41;98937.89;1698633;83;21102;-82
2022/03/04 02:27:19;;;;;;;14.80;10.43;;;;;;;0.44;83.37;98939.19;1720152;83;21090;-84
2022/03/04 02:29:47;;;;;;;14.63;9.80;;;;;;;0.40;83.42;98941.37;1721574;83;21630;-82
2022/03/04 02:32:13;;;;;;;12.35;9.28;;;;;;;0.36;83.49;98943.95;1709723;82;21074;-84
2022/03/04 02:34:39;;;;;;;15.78;10.10;;;;;;;0.35;83.56;98942.26;1705606;83;21745;-82
2022/03/04 02:37:07;;;;;;;11.63;9.38;;;;;;;0.39;83.55;98946.98;1727403;81;21169;-84
2022/03/04 02:39:33;;;;;;;12.53;9.05;;;;;;;0.40;83.55;98950.42;1721025;83;21095;-82
2022/03/04 02:42:00;;;;;;;12.63;10.03;;;;;;;0.41;83.58;98957.34;1720833;81;21058;-81
2022/03/04 02:44:26;;;;;;;13.22;9.70;;;;;;;0.39;83.51;98948.69;1719121;83;21113;-83
2022/03/04 02:46:53;;;;;;;14.80;10.58;;;;;;;0.38;83.48;98948.28;1719205;82;21034;-81
2022/03/04 02:49:20;;;;;;;13.43;9.58;;;;;;;0.36;83.42;98958.63;1719705;83;21054;-82
2022/03/04 02:51:46;;;;;;;14.30;10.28;;;;;;;0.33;83.43;98956.90;1719136;83;22035;-84
2022/03/04 02:54:13;;;;;;;16.23;10.32;;;;;;;0.31;83.38;98958.64;1720171;82;21058;-82
2022/03/04 02:56:41;;;;;;;12.37;9.68;;;;;;;0.28;83.42;98961.23;1699756;83;22384;-81
2022/03/04 02:59:07;;;;;;;13.55;9.70;;;;;;;0.29;83.38;98965.55;1720962;82;21131;-84
2022/03/04 03:01:34;;;;;;;12.90;9.78;;;;;;;0.29;83.36;98962.96;1721254;83;21184;-83
2022/03/04 03:04:01;;;;;;;11.83;9.33;;;;;;;0.29;83.31;98968.14;1699424;83;21094;-81
2022/03/04 03:06:27;;;;;;;13.53;8.55;;;;;;;0.29;83.20;98968.14;1720618;83;21179;-82
2022/03/04 03:08:54;;;;;;;12.78;8.93;;;;;;;0.31;83.09;98967.69;1720836;81;21109;-83
2022/03/04 03:11:20;;;;;;;11.97;8.88;;;;;;;0.33;83.02;98971.58;1699836;83;21057;-82
2022/03/04 03:13:47;;;;;;;13.10;8.90;;;;;;;0.32;82.92;98968.14;1719776;83;22507;-83
2022/03/04 03:16:14;;;;;;;11.78;8.38;;;;;;;0.32;82.88;98965.55;1719454;83;21073;-83
2022/03/04 03:18:41;;;;;;;14.47;9.03;;;;;;;0.36;82.80;98978.89;1719156;83;21090;-83
2022/03/04 03:21:07;;;;;;;11.88;8.35;;;;;;;0.39;82.61;98973.27;1720235;83;21115;-84
2022/03/04 03:23:34;;;;;;;14.40;8.58;;;;;;;0.34;82.46;98971.58;1700238;83;21158;-80
2022/03/04 03:26:01;;;;;;;11.08;8.55;;;;;;;0.33;82.37;98973.72;1700091;83;21139;-83
2022/03/04 03:28:27;;;;;;;10.85;8.18;;;;;;;0.32;82.20;98973.72;1700383;83;21091;-83
2022/03/04 03:30:54;;;;;;;10.05;8.25;;;;;;;0.34;82.03;98975.45;1720676;83;21091;-83
2022/03/04 03:33:21;;;;;;;10.58;7.92;;;;;;;0.33;81.95;98975.45;1724360;81;21107;-82
2022/03/04 03:35:48;;;;;;;12.13;8.15;;;;;;;0.31;81.87;98978.48;1719589;83;21060;-83
2022/03/04 03:38:15;;;;;;;13.25;9.35;;;;;;;0.29;81.79;98981.08;1719845;83;21164;-83
2022/03/04 03:40:41;;;;;;;14.68;8.30;;;;;;;0.27;81.74;98977.63;1718956;81;21078;-83
2022/03/04 03:43:08;;;;;;;12.90;8.00;;;;;;;0.27;81.62;98978.92;1698891;83;21011;-83
2022/03/04 03:45:35;;;;;;;10.72;8.50;;;;;;;0.26;81.56;98974.61;1696540;83;21082;-82
2022/03/04 03:48:02;;;;;;;9.35;7.80;;;;;;;0.25;81.51;98974.16;1713573;83;21063;-82
2022/03/04 03:50:30;;;;;;;10.82;7.97;;;;;;;0.23;81.44;98983.66;1723663;81;21212;-84
2022/03/04 03:52:57;;;;;;;10.68;7.87;;;;;;;0.21;81.42;98984.10;1699368;83;21030;-83
2022/03/04 03:55:24;;;;;;;13.72;8.48;;;;;;;0.20;81.35;98978.48;1658510;85;21547;-83
2022/03/04 03:57:51;;;;;;;10.35;7.80;;;;;;;0.19;81.42;98981.95;1686164;83;21068;-81
2022/03/04 04:00:20;;;;;;;13.15;8.18;;;;;;;0.18;81.46;98993.16;1686022;85;21104;-83
2022/03/04 04:02:50;;;;;;;12.68;8.25;;;;;;;0.13;81.42;98983.25;1690190;83;21069;-83
2022/03/04 04:05:18;;;;;;;9.08;7.45;;;;;;;0.13;81.47;98985.83;1654080;85;21056;-84
2022/03/04 04:07:44;;;;;;;13.03;8.43;;;;;;;0.15;81.44;98989.27;1660783;86;21361;-85
2022/03/04 04:10:11;;;;;;;17.05;8.00;;;;;;;0.16;81.49;98983.25;1661222;85;21661;-83
2022/03/04 04:12:38;;;;;;;11.90;7.92;;;;;;;0.16;81.48;98984.54;1660439;86;21102;-84
2022/03/04 04:15:08;;;;;;;10.65;8.13;;;;;;;0.15;81.52;98985.39;1718768;83;21168;-85
2022/03/04 04:17:36;;;;;;;11.83;8.43;;;;;;;0.15;81.41;98981.52;1698944;83;21015;-84
2022/03/04 04:20:06;;;;;;;15.35;8.30;;;;;;;0.13;81.20;98976.78;1720879;83;21099;-83
2022/03/04 04:22:34;;;;;;;11.63;8.85;;;;;;;0.09;81.23;98983.69;1699153;83;21125;-84
2022/03/04 04:25:01;;;;;;;19.98;9.40;;;;;;;0.05;81.31;98981.09;1719887;83;21103;-81
2022/03/04 04:27:27;;;;;;;13.93;10.03;;;;;;;0.05;81.30;98978.51;1720312;83;21196;-83
2022/03/04 04:29:56;;;;;;;13.18;9.78;;;;;;;0.04;81.22;98980.24;1718216;81;21018;-80
2022/03/04 04:32:23;;;;;;;18.50;10.90;;;;;;;0.01;81.25;98976.36;1741247;80;21620;-83
2022/03/04 04:34:49;;;;;;;18.80;11.57;;;;;;;-0.02;81.32;98978.53;1741816;81;21153;-80
2022/03/04 04:37:16;;;;;;;21.68;13.40;;;;;;;-0.02;81.44;98977.24;1749428;81;21046;-81
2022/03/04 04:39:45;;;;;;;20.97;12.10;;;;;;;-0.03;81.44;98971.63;1745579;81;21224;-80
2022/03/04 04:42:12;;;;;;;21.90;14.78;;;;;;;-0.03;81.49;98974.66;1750730;81;21153;-79
2022/03/04 04:44:39;;;;;;;24.63;14.58;;;;;;;-0.06;81.48;98969.03;1713311;81;21082;-81
2022/03/04 04:47:06;;;;;;;21.65;14.28;;;;;;;-0.07;81.44;98980.27;1745540;81;21034;-81
2022/03/04 04:49:37;;;;;;;22.75;14.58;;;;;;;-0.08;81.57;98981.55;1686191;83;21194;-82
2022/03/04 04:52:08;;;;;;;20.30;13.90;;;;;;;-0.08;81.53;98981.11;1726145;83;21209;-82
2022/03/04 04:54:35;;;;;;;20.37;13.60;;;;;;;-0.10;81.62;98982.84;1738325;81;21592;-81
2022/03/04 04:57:02;;;;;;;19.30;12.90;;;;;;;-0.12;81.75;98981.95;1725791;83;21129;-82
2022/03/04 04:59:30;;;;;;;19.65;13.93;;;;;;;-0.15;81.66;98979.40;1696743;83;21125;-83
2022/03/04 05:01:57;;;;;;;17.98;12.45;;;;;;;-0.17;81.59;98983.68;1725791;83;21125;-81
2022/03/04 05:04:24;;;;;;;18.82;12.75;;;;;;;-0.17;81.66;98982.83;1738484;81;21198;-82
2022/03/04 05:06:51;;;;;;;17.98;12.60;;;;;;;-0.17;81.80;98984.98;1722205;81;21105;-81
2022/03/04 05:09:18;;;;;;;19.92;13.13;;;;;;;-0.16;81.78;98990.59;1720192;81;21112;-80
2022/03/04 05:11:45;;;;;;;27.30;15.15;;;;;;;-0.12;81.69;98994.03;1719426;81;21104;-82
2022/03/04 05:14:12;;;;;;;26.35;15.23;;;;;;;-0.13;81.70;98988.45;1745019;81;21300;-80
2022/03/04 05:16:39;;;;;;;22.48;14.87;;;;;;;-0.15;81.77;98992.33;1729072;81;21117;-82
2022/03/04 05:19:05;;;;;;;23.22;15.28;;;;;;;-0.15;81.79;98996.20;1750863;81;20995;-82
2022/03/04 05:21:32;;;;;;;23.20;15.28;;;;;;;-0.14;81.83;99001.78;1752552;81;22125;-82
2022/03/04 05:23:59;;;;;;;25.00;15.13;;;;;;;-0.12;81.83;99001.79;1754594;81;21300;-84
2022/03/04 05:26:31;;;;;;;24.67;14.70;;;;;;;-0.10;81.83;99009.11;1724253;83;21055;-79
2022/03/04 05:29:00;;;;;;;32.35;21.23;;;;;;;-0.11;81.76;99004.38;1734770;81;21201;-79
2022/03/04 05:31:27;;;;;;;25.80;15.38;;;;;;;-0.09;81.79;99005.23;1733913;81;21133;-80
2022/03/04 05:33:54;;;;;;;23.27;15.50;;;;;;;-0.06;81.70;99001.36;1744621;81;21065;-81
2022/03/04 05:36:21;;;;;;;20.88;14.75;;;;;;;-0.05;81.68;99004.39;1747721;81;21069;-79
2022/03/04 05:38:49;;;;;;;22.17;13.68;;;;;;;-0.05;81.69;99008.68;1751881;81;21038;-80
2022/03/04 05:41:17;;;;;;;23.92;14.73;;;;;;;-0.04;81.71;99011.27;1739175;81;21149;-79
2022/03/04 05:43:45;;;;;;;22.77;14.28;;;;;;;-0.01;81.69;99017.73;1752741;81;21030;-81
2022/03/04 05:46:11;;;;;;;20.08;12.78;;;;;;;-0.01;81.52;99015.16;1711944;81;21933;-80
2022/03/04 05:48:38;;;;;;;17.57;12.25;;;;;;;-0.02;81.50;99017.33;1742802;80;21062;-80
2022/03/04 05:51:05;;;;;;;19.02;13.65;;;;;;;0.00;81.40;99017.33;1745407;81;21105;-79
2022/03/04 05:53:33;;;;;;;19.60;12.20;;;;;;;-0.01;81.34;99019.03;1714573;81;21058;-81
2022/03/04 05:56:07;;;;;;;22.25;13.13;;;;;;;0.01;81.04;99020.77;1741613;81;21146;-80
2022/03/04 05:58:35;;;;;;;;;;;;;;;0.02;80.93;99026.35;1742024;81;21118;-80
2022/03/04 06:01:02;;;;;;;18.35;10.80;;;;;;;-0.01;80.94;99029.38;1733218;81;20191;-81
2022/03/04 06:03:29;;;;;;;19.32;12.65;;;;;;;-0.03;80.77;99029.81;1745446;81;21057;-81
2022/03/04 06:05:56;;;;;;;18.25;11.45;;;;;;;-0.02;80.78;99038.02;1723942;81;21822;-81
2022/03/04 06:08:23;;;;;;;17.92;11.40;;;;;;;0.02;80.72;99040.58;1744637;81;22345;-81
2022/03/04 06:10:50;;;;;;;16.93;12.00;;;;;;;0.02;80.50;99040.58;1733217;81;21557;-81
2022/03/04 06:13:17;;;;;;;18.55;12.43;;;;;;;0.01;80.44;99044.05;1745350;81;21062;-82
2022/03/04 06:15:44;;;;;;;17.50;11.20;;;;;;;0.00;80.49;99045.78;1749103;81;21061;-81
2022/03/04 06:18:11;;;;;;;17.05;11.78;;;;;;;0.02;80.53;99054.39;1721402;81;21708;-81
2022/03/04 06:20:38;;;;;;;20.05;11.88;;;;;;;0.06;80.65;99046.20;1734742;81;21121;-79
2022/03/04 06:23:05;;;;;;;12.78;10.35;;;;;;;0.09;80.49;99053.97;1745950;81;21146;-80
2022/03/04 06:25:31;;;;;;;18.00;11.95;;;;;;;0.11;80.38;99045.77;1724936;81;21081;-82
2022/03/04 06:28:01;;;;;;;17.10;12.28;;;;;;;0.13;80.46;99051.36;1724070;81;21070;-82
2022/03/04 06:30:30;;;;;;;16.67;9.98;;;;;;;0.16;80.19;99050.51;1726045;81;21018;-81
2022/03/04 06:35:44;;;;;;;13.28;9.43;;;;;;;0.22;79.70;99054.40;1750645;81;21152;-78
2022/03/04 06:38:11;;;;;;;12.40;9.45;;;;;;;0.24;79.61;99057.84;1727558;81;21061;-78
2022/03/04 06:40:43;;;;;;;16.82;10.63;;;;;;;0.28;79.62;99053.08;1714548;83;21109;-79
2022/03/04 06:43:10;;;;;;;14.05;9.63;;;;;;;0.33;79.62;99057.82;1714153;83;21157;-78
2022/03/04 06:45:38;;;;;;;11.85;8.48;;;;;;;0.39;79.13;99055.68;1738699;81;21075;-80
2022/03/04 06:48:05;;;;;;;14.80;8.93;;;;;;;0.39;78.52;99053.50;1744263;81;21565;-79
2022/03/04 06:50:32;;;;;;;14.05;9.05;;;;;;;0.38;78.49;99051.36;1719051;83;21081;-82
2022/03/04 06:52:59;;;;;;;12.28;7.80;;;;;;;0.39;78.24;99049.62;1720531;83;21058;-80
2022/03/04 06:55:27;;;;;;;11.10;8.45;;;;;;;0.39;78.02;99046.63;1693513;83;21060;-81
2022/03/04 06:57:55;;;;;;;16.97;9.18;;;;;;;0.44;77.92;99046.59;1725764;83;21110;-81
2022/03/04 07:00:24;;;;;;;12.50;8.40;;;;;;;0.47;77.87;99051.77;1726606;83;21106;-78
2022/03/04 07:02:54;;;;;;;16.82;9.65;;;;;;;0.49;77.77;99052.66;1737752;81;21058;-86
2022/03/04 07:05:21;;;;;;;12.73;9.10;;;;;;;0.49;77.14;99050.92;1750463;79;21048;-82
2022/03/04 07:07:49;;;;;;;15.48;8.28;;;;;;;0.48;76.78;99057.39;1755549;81;21143;-82
2022/03/04 07:10:16;;;;;;;14.45;9.23;;;;;;;0.50;77.17;99047.89;1750645;81;21036;-80
2022/03/04 07:12:45;;;;;;;12.00;7.67;;;;;;;0.56;77.23;99050.48;1746984;81;21085;-80
2022/03/04 07:15:12;;;;;;;12.47;8.33;;;;;;;0.63;77.13;99045.71;1735336;81;21394;-83
2022/03/04 07:17:41;;;;;;;14.50;9.45;;;;;;;0.69;77.10;99043.53;1739943;79;20987;-82
2022/03/04 07:20:10;;;;;;;16.73;11.70;;;;;;;0.70;76.49;99053.03;1741861;81;21484;-76
2022/03/04 07:22:37;;;;;;;14.95;9.40;;;;;;;0.70;76.39;99042.67;1727340;81;22103;-79
2022/03/04 07:25:07;;;;;;;15.50;11.68;;;;;;;0.73;76.16;99044.82;1734564;82;21121;-77
2022/03/04 07:27:37;;;;;;;19.02;11.08;;;;;;;0.76;76.04;99043.08;1744453;81;21114;-79
2022/03/04 07:30:12;;;;;;;20.12;12.23;;;;;;;0.74;75.82;99038.79;1755154;81;21544;-81
2022/03/04 07:32:41;;;;;;;19.50;11.48;;;;;;;0.78;75.71;99053.03;1753495;81;21274;-79
2022/03/04 07:35:09;;;;;;;17.73;11.97;;;;;;;0.76;75.45;99055.62;1741790;81;21069;-81
2022/03/04 07:37:39;;;;;;;22.40;14.28;;;;;;;0.75;75.36;99053.88;1690629;84;21113;-80
2022/03/04 07:40:12;;;;;;;27.80;18.02;;;;;;;0.79;75.70;99059.50;1691298;84;21096;-79
2022/03/04 07:42:40;;;;;;;32.60;22.13;;;;;;;0.82;75.54;99058.61;1692638;83;21123;-78
2022/03/04 07:45:10;;;;;;;35.13;22.02;;;;;;;0.84;75.62;99049.98;1754117;81;21035;-82
2022/03/04 07:47:38;;;;;;;41.65;24.50;;;;;;;0.88;75.75;99054.72;1745456;81;21130;-78
2022/03/04 07:50:08;;;;;;;58.68;33.63;;;;;;;0.96;75.75;99050.38;1733009;81;21055;-80
2022/03/04 07:52:44;;;;;;;56.68;32.28;;;;;;;1.02;75.10;99052.93;1722636;81;39679;-83
2022/03/04 07:55:14;;;;;;;76.33;36.28;;;;;;;1.02;74.78;99052.93;1742363;81;21102;-81
2022/03/04 07:57:44;;;;;;;64.60;34.48;;;;;;;0.99;74.14;99046.46;1668665;84;21121;-80
2022/03/04 08:00:19;;;;;;;67.45;36.03;;;;;;;0.93;74.28;99056.86;1697099;83;21135;-78
2022/03/04 08:02:54;;;;;;;68.52;36.38;;;;;;;0.90;74.34;99051.69;1687805;83;21503;-81
2022/03/04 08:05:22;;;;;;;54.03;29.98;;;;;;;0.85;74.33;99052.14;1701607;83;21105;-77
2022/03/04 08:07:49;;;;;;;53.60;29.15;;;;;;;0.85;74.16;99063.79;1684713;85;21111;-73
2022/03/04 08:10:20;;;;;;;48.42;30.48;;;;;;;0.85;74.36;99052.14;1685511;83;21562;-73
2022/03/04 08:12:48;;;;;;;47.30;27.73;;;;;;;0.89;75.04;99061.61;1679186;84;21128;-81
2022/03/04 08:15:16;;;;;;;33.55;21.00;;;;;;;0.97;74.99;99058.56;1668830;84;21050;-79
2022/03/04 08:17:45;;;;;;;29.98;19.05;;;;;;;1.04;74.77;99055.11;1721409;82;21113;-80
2022/03/04 08:20:16;;;;;;;28.85;19.67;;;;;;;1.09;74.59;99058.55;1744686;81;21027;-78
2022/03/04 08:22:47;;;;;;;27.65;19.07;;;;;;;1.13;74.45;99051.61;1729572;81;21251;-78
2022/03/04 08:25:15;;;;;;;25.88;18.95;;;;;;;1.17;74.43;99052.46;1728937;81;21133;-77
2022/03/04 08:27:45;;;;;;;29.50;19.42;;;;;;;1.23;73.89;99059.77;1734828;81;21058;-77
2022/03/04 08:30:14;;;;;;;26.10;17.15;;;;;;;1.32;74.32;99064.05;1745715;81;21130;-77
2022/03/04 08:32:41;;;;;;;20.48;15.58;;;;;;;1.37;73.12;99063.59;1739639;81;21000;-79
2022/03/04 08:35:10;;;;;;;18.67;12.45;;;;;;;1.40;72.96;99064.03;1743922;81;21118;-73
2022/03/04 08:37:38;;;;;;;14.07;9.98;;;;;;;1.42;71.82;99063.13;1740382;81;21134;-83
2022/03/04 08:40:09;;;;;;;13.28;10.28;;;;;;;1.44;71.81;99067.02;1740771;81;21063;-77
2022/03/04 08:42:40;;;;;;;12.55;10.03;;;;;;;1.49;71.91;99067.85;1744939;81;21122;-77
2022/03/04 08:45:14;;;;;;;16.15;10.15;;;;;;;1.55;71.43;99074.31;1701319;81;21030;-78
2022/03/04 08:47:44;;;;;;;19.30;13.05;;;;;;;1.62;70.77;99065.63;1743148;80;21221;-75
2022/03/04 08:50:15;;;;;;;24.50;15.50;;;;;;;1.71;71.33;99071.19;1747806;81;21135;-78
2022/03/04 08:52:44;;;;;;;15.00;11.00;;;;;;;1.81;71.21;99065.06;1721178;81;21035;-78
2022/03/04 08:55:17;;;;;;;15.55;10.55;;;;;;;1.95;70.90;99071.89;1741390;81;21077;-82
2022/03/04 08:57:45;;;;;;;21.75;14.13;;;;;;;2.04;70.64;99064.06;1749458;81;21171;-79
2022/03/04 09:00:15;;;;;;;21.90;15.00;;;;;;;2.13;70.61;99061.38;1749598;81;21178;-78
2022/03/04 09:02:50;;;;;;;24.05;15.70;;;;;;;2.22;70.63;99066.52;1746319;81;21051;-82
2022/03/04 09:05:28;;;;;;;23.32;15.28;;;;;;;2.32;70.18;99062.53;1741786;81;22275;-82
2022/03/04 09:08:09;;;;;;;19.70;14.40;;;;;;;2.36;69.87;99059.91;1743744;81;21122;-84
2022/03/04 09:10:52;;;;;;;10.32;7.03;;;;;;;2.40;69.58;99052.53;1748870;81;21552;-84
2022/03/04 09:13:35;;;;;;;12.25;8.28;;;;;;;2.46;67.92;99059.39;1748391;81;21106;-80
2022/03/04 14:25:17;;;;;;;107.07;58.83;;;;;;;1.79;62.72;99138.59;1686687;81;21694;-78
2022/03/04 14:27:48;;;;;;;93.50;47.70;;;;;;;1.62;63.28;99149.05;1724072;81;21101;-79
2022/03/04 14:30:20;;;;;;;71.82;38.10;;;;;;;1.45;63.83;99150.41;1724816;82;21861;-78
2022/03/04 14:32:49;;;;;;;55.25;32.35;;;;;;;1.32;64.02;99148.28;1729189;82;21067;-79
2022/03/04 14:35:17;;;;;;;65.52;36.70;;;;;;;1.21;64.53;99155.22;1725782;81;21013;-82
2022/03/04 14:37:46;;;;;;;91.65;51.40;;;;;;;1.14;65.20;99150.48;1725929;81;21538;-82
2022/03/04 14:40:18;;;;;;;81.10;43.35;;;;;;;1.02;65.83;99155.27;1706484;83;21017;-78
2022/03/04 14:42:50;;;;;;;70.87;39.23;;;;;;;1.01;66.17;99160.44;1676386;84;22006;-79
2022/03/04 14:45:18;;;;;;;81.15;42.75;;;;;;;0.99;66.16;99163.03;1713796;83;21090;-79
2022/03/04 14:47:56;;;;;;;69.67;36.03;;;;;;;0.97;66.19;99170.39;1699678;83;21054;-84
2022/03/04 14:50:27;;;;;;;65.35;36.45;;;;;;;0.91;66.14;99173.42;1714812;83;21594;-80
2022/03/04 14:52:56;;;;;;;64.10;33.73;;;;;;;0.85;66.35;99177.75;1720110;82;21098;-81
2022/03/04 14:55:25;;;;;;;63.55;32.40;;;;;;;0.78;66.15;99178.63;1715157;83;21134;-81
2022/03/04 14:57:54;;;;;;;51.70;30.15;;;;;;;0.70;66.45;99178.17;1715307;83;21534;-82
2022/03/04 15:00:23;;;;;;;48.15;27.32;;;;;;;0.59;66.40;99182.92;1713254;83;21113;-83
2022/03/04 15:02:50;;;;;;;56.75;31.90;;;;;;;0.50;66.62;99181.20;1715984;83;21202;-81
2022/03/04 15:05:20;;;;;;;64.32;33.40;;;;;;;0.39;66.87;99184.20;1663134;84;21531;-81
2022/03/04 15:07:52;;;;;;;60.65;32.35;;;;;;;0.33;67.15;99181.18;1689150;84;21066;-85
2022/03/04 15:10:19;;;;;;;88.47;40.17;;;;;;;0.26;67.50;99191.09;1715653;83;21606;-81
2022/03/04 15:12:48;;;;;;;59.05;34.35;;;;;;;0.22;67.49;99188.94;1710196;83;21117;-81
2022/03/04 15:15:24;;;;;;;66.20;35.45;;;;;;;0.18;67.44;99189.78;1715127;83;21604;-81
2022/03/04 15:17:55;;;;;;;66.22;36.23;;;;;;;0.13;67.80;99192.34;1715340;83;21066;-83
2022/03/04 15:20:25;;;;;;;59.95;35.50;;;;;;;0.12;68.00;99192.37;1715385;83;21992;-83
2022/03/04 15:22:54;;;;;;;56.90;29.72;;;;;;;0.11;68.14;99196.66;1709899;83;21129;-82
2022/03/04 15:25:21;;;;;;;38.35;23.20;;;;;;;0.10;68.04;99197.95;1690813;84;21082;-81
2022/03/04 15:27:52;;;;;;;30.57;18.42;;;;;;;0.04;67.83;99194.08;1707099;83;21949;-86
2022/03/04 15:30:20;;;;;;;26.80;16.87;;;;;;;-0.04;67.40;99188.86;1713579;83;21015;-85
2022/03/04 15:32:47;;;;;;;26.55;15.58;;;;;;;-0.10;67.58;99194.89;1715845;83;21078;-82
2022/03/04 15:35:15;;;;;;;68.95;33.13;;;;;;;-0.14;67.16;99203.48;1715784;83;21503;-80
2022/03/04 15:37:44;;;;;;;52.53;30.48;;;;;;;-0.20;67.18;99204.77;1708851;83;22387;-86
2022/03/04 15:40:15;;;;;;;24.75;15.43;;;;;;;-0.21;67.38;99208.20;1706534;83;21093;-79
2022/03/04 15:42:42;;;;;;;24.07;15.03;;;;;;;-0.21;67.27;99210.80;1678430;85;21125;-79
2022/03/04 15:45:09;;;;;;;23.38;15.78;;;;;;;-0.25;67.46;99211.21;1698839;83;21684;-82
2022/03/04 15:47:44;;;;;;;28.00;16.75;;;;;;;-0.25;67.81;99207.77;1712532;83;22348;-81
2022/03/04 15:50:11;;;;;;;25.55;17.30;;;;;;;-0.26;67.79;99209.47;1714293;83;21110;-83
2022/03/04 15:52:38;;;;;;;28.15;17.07;;;;;;;-0.29;67.08;99208.59;1714940;83;21172;-80
2022/03/04 15:55:10;;;;;;;31.10;18.57;;;;;;;-0.35;67.27;99209.85;1701354;83;21150;-79
2022/03/04 15:57:43;;;;;;;33.83;18.80;;;;;;;-0.43;67.35;99212.42;1715204;83;21030;-78
2022/03/04 16:00:13;;;;;;;30.15;17.87;;;;;;;-0.49;67.34;99219.70;1713113;83;21452;-78
2022/03/04 16:02:43;;;;;;;35.70;17.70;;;;;;;-0.56;67.54;99230.86;1700669;83;21547;-79
2022/03/04 16:05:18;;;;;;;36.00;18.67;;;;;;;-0.60;67.81;99222.67;1657272;86;21229;-82
2022/03/04 16:07:47;;;;;;;35.80;18.02;;;;;;;-0.60;67.81;99223.97;1690264;84;21113;-78
2022/03/04 16:10:16;;;;;;;26.35;16.40;;;;;;;-0.63;68.19;99235.12;1673979;84;21166;-81
2022/03/04 16:12:44;;;;;;;31.15;16.55;;;;;;;-0.66;68.13;99231.67;1690691;84;21079;-82
2022/03/04 16:15:17;;;;;;;29.92;16.62;;;;;;;-0.66;68.10;99229.09;1689423;84;21068;-83
2022/03/04 16:17:46;;;;;;;29.42;16.35;;;;;;;-0.70;67.97;99235.11;1637085;86;21568;-80
2022/03/04 16:20:16;;;;;;;27.75;15.00;;;;;;;-0.72;68.09;99232.52;1715066;83;21020;-81
2022/03/04 16:22:45;;;;;;;18.40;11.93;;;;;;;-0.75;68.01;99233.78;1714974;83;21059;-83
2022/03/04 16:25:14;;;;;;;17.57;11.85;;;;;;;-0.77;68.16;99234.20;1712672;83;21578;-80
2022/03/04 16:27:45;;;;;;;19.15;13.20;;;;;;;-0.80;67.87;99231.59;1722232;83;21137;-80
2022/03/04 16:30:17;;;;;;;19.17;12.28;;;;;;;-0.81;68.00;99239.78;1694231;83;21050;-80
2022/03/04 16:32:45;;;;;;;20.15;12.85;;;;;;;-0.82;68.12;99247.52;1710558;83;21086;-80
2022/03/04 16:35:13;;;;;;;23.27;13.80;;;;;;;-0.84;67.55;99242.73;1718526;83;21086;-79
2022/03/04 16:37:40;;;;;;;23.05;13.40;;;;;;;-0.87;67.72;99248.77;1728153;81;21120;-80
2022/03/04 16:40:13;;;;;;;24.65;15.45;;;;;;;-0.88;67.69;99248.75;1683119;82;22345;-78
2022/03/04 16:42:45;;;;;;;21.05;14.23;;;;;;;-0.89;67.87;99249.19;1727751;82;22344;-78